sensor_id;sensor_type;location;lat;lon;timestamp;pressure;altitude;pressure_sealevel;temperature
19061;BMP280;9663;48.996;8.334;2024-01-16T00:01:54;99826.53;;;7.76
19061;BMP280;9663;48.996;8.334;2024-01-16T00:04:20;99832.41;;;7.77
19061;BMP280;9663;48.996;8.334;2024-01-16T00:06:45;99833.22;;;7.76
19061;BMP280;9663;48.996;8.334;2024-01-16T00:09:11;99851.75;;;7.75
19061;BMP280;9663;48.996;8.334;2024-01-16T00:11:43;99844.19;;;7.72
19061;BMP280;9663;48.996;8.334;2024-01-16T00:14:10;99838.28;;;7.73
19061;BMP280;9663;48.996;8.334;2024-01-16T00:16:47;99849.22;;;7.70
19061;BMP280;9663;48.996;8.334;2024-01-16T00:19:14;99842.47;;;7.71
19061;BMP280;9663;48.996;8.334;2024-01-16T00:21:42;99843.34;;;7.71
19061;BMP280;9663;48.996;8.334;2024-01-16T00:24:07;99850.06;;;7.75
19061;BMP280;9663;48.996;8.334;2024-01-16T00:26:33;99845.03;;;7.78
19061;BMP280;9663;48.996;8.334;2024-01-16T00:28:59;99839.13;;;7.81
19061;BMP280;9663;48.996;8.334;2024-01-16T00:31:26;99834.91;;;7.84
19061;BMP280;9663;48.996;8.334;2024-01-16T00:33:52;99834.91;;;7.86
19061;BMP280;9663;48.996;8.334;2024-01-16T00:36:17;99833.25;;;7.86
19061;BMP280;9663;48.996;8.334;2024-01-16T00:38:43;99837.44;;;7.89
19061;BMP280;9663;48.996;8.334;2024-01-16T00:41:09;99836.63;;;7.90
19061;BMP280;9663;48.996;8.334;2024-01-16T00:43:34;99833.22;;;7.91
19061;BMP280;9663;48.996;8.334;2024-01-16T00:46:01;99834.91;;;7.93
19061;BMP280;9663;48.996;8.334;2024-01-16T00:48:27;99829.00;;;7.96
19061;BMP280;9663;48.996;8.334;2024-01-16T00:50:52;99833.25;;;8.00
19061;BMP280;9663;48.996;8.334;2024-01-16T00:53:18;99838.28;;;8.03
19061;BMP280;9663;48.996;8.334;2024-01-16T00:55:44;99833.22;;;8.07
19061;BMP280;9663;48.996;8.334;2024-01-16T00:58:10;99836.56;;;8.09
19061;BMP280;9663;48.996;8.334;2024-01-16T01:00:35;99824.81;;;8.09
19061;BMP280;9663;48.996;8.334;2024-01-16T01:03:03;99829.03;;;8.12
19061;BMP280;9663;48.996;8.334;2024-01-16T01:05:29;99829.03;;;8.13
19061;BMP280;9663;48.996;8.334;2024-01-16T01:07:56;99832.41;;;8.15
19061;BMP280;9663;48.996;8.334;2024-01-16T01:10:22;99828.22;;;8.14
19061;BMP280;9663;48.996;8.334;2024-01-16T01:12:48;99844.19;;;8.13
19061;BMP280;9663;48.996;8.334;2024-01-16T01:15:14;99841.66;;;8.10
19061;BMP280;9663;48.996;8.334;2024-01-16T01:17:41;99841.63;;;8.09
19061;BMP280;9663;48.996;8.334;2024-01-16T01:20:08;99847.53;;;8.07
19061;BMP280;9663;48.996;8.334;2024-01-16T01:22:35;99847.53;;;8.02
19061;BMP280;9663;48.996;8.334;2024-01-16T01:25:03;99845.03;;;7.96
19061;BMP280;9663;48.996;8.334;2024-01-16T01:27:29;99851.78;;;7.93
19061;BMP280;9663;48.996;8.334;2024-01-16T01:29:55;99850.94;;;7.88
19061;BMP280;9663;48.996;8.334;2024-01-16T01:32:21;99858.50;;;7.86
19061;BMP280;9663;48.996;8.334;2024-01-16T01:34:47;99857.66;;;7.81
19061;BMP280;9663;48.996;8.334;2024-01-16T01:37:13;99858.47;;;7.79
19061;BMP280;9663;48.996;8.334;2024-01-16T01:39:40;99860.16;;;7.77
19061;BMP280;9663;48.996;8.334;2024-01-16T01:42:05;99861.84;;;7.76
19061;BMP280;9663;48.996;8.334;2024-01-16T01:44:31;99861.00;;;7.77
19061;BMP280;9663;48.996;8.334;2024-01-16T01:46:58;99857.66;;;7.78
19061;BMP280;9663;48.996;8.334;2024-01-16T01:49:25;99862.69;;;7.77
19061;BMP280;9663;48.996;8.334;2024-01-16T01:51:52;99857.63;;;7.75
19061;BMP280;9663;48.996;8.334;2024-01-16T01:54:20;99857.63;;;7.74
19061;BMP280;9663;48.996;8.334;2024-01-16T01:56:48;99859.31;;;7.72
19061;BMP280;9663;48.996;8.334;2024-01-16T01:59:17;99861.00;;;7.70
19061;BMP280;9663;48.996;8.334;2024-01-16T02:01:48;99865.19;;;7.68
19061;BMP280;9663;48.996;8.334;2024-01-16T02:04:16;99864.34;;;7.66
19061;BMP280;9663;48.996;8.334;2024-01-16T02:06:43;99866.03;;;7.63
19061;BMP280;9663;48.996;8.334;2024-01-16T02:09:11;99861.84;;;7.59
19061;BMP280;9663;48.996;8.334;2024-01-16T02:11:43;99867.69;;;7.55
19061;BMP280;9663;48.996;8.334;2024-01-16T02:14:10;99870.22;;;7.53
19061;BMP280;9663;48.996;8.334;2024-01-16T02:16:38;99860.97;;;7.51
19061;BMP280;9663;48.996;8.334;2024-01-16T02:19:04;99867.72;;;7.49
19061;BMP280;9663;48.996;8.334;2024-01-16T02:21:46;99865.19;;;7.46
19061;BMP280;9663;48.996;8.334;2024-01-16T02:24:13;99864.34;;;7.44
19061;BMP280;9663;48.996;8.334;2024-01-16T02:26:39;99865.16;;;7.41
19061;BMP280;9663;48.996;8.334;2024-01-16T02:29:05;99859.28;;;7.39
19061;BMP280;9663;48.996;8.334;2024-01-16T02:31:34;99855.91;;;7.37
19061;BMP280;9663;48.996;8.334;2024-01-16T02:34:01;99858.44;;;7.36
19061;BMP280;9663;48.996;8.334;2024-01-16T02:36:28;99864.28;;;7.33
19061;BMP280;9663;48.996;8.334;2024-01-16T02:38:54;99865.97;;;7.31
19061;BMP280;9663;48.996;8.334;2024-01-16T02:41:21;99867.66;;;7.29
19061;BMP280;9663;48.996;8.334;2024-01-16T02:43:47;99865.13;;;7.25
19061;BMP280;9663;48.996;8.334;2024-01-16T02:46:14;99860.06;;;7.22
19061;BMP280;9663;48.996;8.334;2024-01-16T02:48:40;99870.16;;;7.19
19061;BMP280;9663;48.996;8.334;2024-01-16T02:51:08;99866.75;;;7.16
19061;BMP280;9663;48.996;8.334;2024-01-16T02:53:34;99871.81;;;7.11
19061;BMP280;9663;48.996;8.334;2024-01-16T02:56:00;99865.06;;;7.09
19061;BMP280;9663;48.996;8.334;2024-01-16T02:58:30;99871.78;;;7.07
19061;BMP280;9663;48.996;8.334;2024-01-16T03:00:58;99870.13;;;7.04
19061;BMP280;9663;48.996;8.334;2024-01-16T03:03:24;99879.31;;;7.01
19061;BMP280;9663;48.996;8.334;2024-01-16T03:05:50;99881.81;;;6.99
19061;BMP280;9663;48.996;8.334;2024-01-16T03:08:16;99883.50;;;6.99
19061;BMP280;9663;48.996;8.334;2024-01-16T03:10:42;99886.03;;;6.97
19061;BMP280;9663;48.996;8.334;2024-01-16T03:13:08;99880.97;;;6.96
19061;BMP280;9663;48.996;8.334;2024-01-16T03:15:33;99889.41;;;6.95
19061;BMP280;9663;48.996;8.334;2024-01-16T03:18:00;99895.28;;;6.95
19061;BMP280;9663;48.996;8.334;2024-01-16T03:20:27;99891.91;;;6.92
19061;BMP280;9663;48.996;8.334;2024-01-16T03:22:53;99891.06;;;6.93
19061;BMP280;9663;48.996;8.334;2024-01-16T03:25:19;99894.44;;;6.95
19061;BMP280;9663;48.996;8.334;2024-01-16T03:27:46;99896.09;;;6.96
19061;BMP280;9663;48.996;8.334;2024-01-16T03:30:12;99899.50;;;6.98
19061;BMP280;9663;48.996;8.334;2024-01-16T03:32:38;99901.19;;;7.02
19061;BMP280;9663;48.996;8.334;2024-01-16T03:35:05;99891.94;;;7.02
19061;BMP280;9663;48.996;8.334;2024-01-16T03:37:32;99894.44;;;7.01
19061;BMP280;9663;48.996;8.334;2024-01-16T03:39:58;99892.78;;;6.98
19061;BMP280;9663;48.996;8.334;2024-01-16T03:42:24;99899.47;;;6.95
19061;BMP280;9663;48.996;8.334;2024-01-16T03:44:50;99895.25;;;6.91
19061;BMP280;9663;48.996;8.334;2024-01-16T03:47:16;99896.91;;;6.87
19061;BMP280;9663;48.996;8.334;2024-01-16T03:49:42;99898.59;;;6.87
19061;BMP280;9663;48.996;8.334;2024-01-16T03:52:08;99896.06;;;6.84
19061;BMP280;9663;48.996;8.334;2024-01-16T03:54:34;99895.19;;;6.79
19061;BMP280;9663;48.996;8.334;2024-01-16T03:56:59;99887.59;;;6.73
19061;BMP280;9663;48.996;8.334;2024-01-16T03:59:25;99890.94;;;6.69
19061;BMP280;9663;48.996;8.334;2024-01-16T04:01:51;99889.25;;;6.64
19061;BMP280;9663;48.996;8.334;2024-01-16T04:04:17;99887.50;;;6.60
19061;BMP280;9663;48.996;8.334;2024-01-16T04:06:43;99890.03;;;6.55
19061;BMP280;9663;48.996;8.334;2024-01-16T04:09:09;99886.63;;;6.53
19061;BMP280;9663;48.996;8.334;2024-01-16T04:11:36;99881.59;;;6.50
19061;BMP280;9663;48.996;8.334;2024-01-16T04:14:01;99882.44;;;6.49
19061;BMP280;9663;48.996;8.334;2024-01-16T04:16:28;99885.78;;;6.45
19061;BMP280;9663;48.996;8.334;2024-01-16T04:18:54;99893.31;;;6.45
19061;BMP280;9663;48.996;8.334;2024-01-16T04:21:19;99894.97;;;6.42
19061;BMP280;9663;48.996;8.334;2024-01-16T04:23:45;99890.75;;;6.39
19061;BMP280;9663;48.996;8.334;2024-01-16T04:26:11;99890.75;;;6.38
19061;BMP280;9663;48.996;8.334;2024-01-16T04:28:37;99888.19;;;6.35
19061;BMP280;9663;48.996;8.334;2024-01-16T04:31:05;99878.97;;;6.33
19061;BMP280;9663;48.996;8.334;2024-01-16T04:33:32;99886.50;;;6.30
19061;BMP280;9663;48.996;8.334;2024-01-16T04:35:58;99878.06;;;6.26
19061;BMP280;9663;48.996;8.334;2024-01-16T04:38:23;99878.88;;;6.24
19061;BMP280;9663;48.996;8.334;2024-01-16T04:40:49;99875.53;;;6.23
19061;BMP280;9663;48.996;8.334;2024-01-16T04:43:15;99878.91;;;6.21
19061;BMP280;9663;48.996;8.334;2024-01-16T04:45:41;99876.34;;;6.19
19061;BMP280;9663;48.996;8.334;2024-01-16T04:48:07;99875.50;;;6.19
19061;BMP280;9663;48.996;8.334;2024-01-16T04:50:36;99873.81;;;6.18
19061;BMP280;9663;48.996;8.334;2024-01-16T04:53:02;99875.47;;;6.16
19061;BMP280;9663;48.996;8.334;2024-01-16T04:55:28;99873.78;;;6.15
19061;BMP280;9663;48.996;8.334;2024-01-16T04:57:55;99872.13;;;6.15
19061;BMP280;9663;48.996;8.334;2024-01-16T05:00:21;99870.44;;;6.13
19061;BMP280;9663;48.996;8.334;2024-01-16T05:02:48;99873.78;;;6.12
19061;BMP280;9663;48.996;8.334;2024-01-16T05:05:14;99867.88;;;6.10
19061;BMP280;9663;48.996;8.334;2024-01-16T05:07:41;99874.59;;;6.09
19061;BMP280;9663;48.996;8.334;2024-01-16T05:10:10;99866.19;;;6.10
19061;BMP280;9663;48.996;8.334;2024-01-16T05:12:39;99863.66;;;6.09
19061;BMP280;9663;48.996;8.334;2024-01-16T05:15:05;99862.00;;;6.11
19061;BMP280;9663;48.996;8.334;2024-01-16T05:17:32;99861.19;;;6.12
19061;BMP280;9663;48.996;8.334;2024-01-16T05:19:58;99843.56;;;6.12
19061;BMP280;9663;48.996;8.334;2024-01-16T05:22:24;99839.34;;;6.12
19061;BMP280;9663;48.996;8.334;2024-01-16T05:24:51;99842.75;;;6.14
19061;BMP280;9663;48.996;8.334;2024-01-16T05:27:17;99843.59;;;6.15
19061;BMP280;9663;48.996;8.334;2024-01-16T05:29:43;99839.41;;;6.17
19061;BMP280;9663;48.996;8.334;2024-01-16T05:32:08;99823.44;;;6.16
19061;BMP280;9663;48.996;8.334;2024-01-16T05:34:34;99817.56;;;6.17
19061;BMP280;9663;48.996;8.334;2024-01-16T05:37:00;99815.03;;;6.17
19061;BMP280;9663;48.996;8.334;2024-01-16T05:39:26;99815.03;;;6.17
19061;BMP280;9663;48.996;8.334;2024-01-16T05:41:52;99815.91;;;6.18
19061;BMP280;9663;48.996;8.334;2024-01-16T05:44:17;99819.25;;;6.17
19061;BMP280;9663;48.996;8.334;2024-01-16T05:46:44;99820.91;;;6.15
19061;BMP280;9663;48.996;8.334;2024-01-16T05:49:10;99818.38;;;6.13
19061;BMP280;9663;48.996;8.334;2024-01-16T05:51:36;99815.03;;;6.11
19061;BMP280;9663;48.996;8.334;2024-01-16T05:54:02;99824.25;;;6.09
19061;BMP280;9663;48.996;8.334;2024-01-16T05:56:31;99825.91;;;6.07
19061;BMP280;9663;48.996;8.334;2024-01-16T05:58:57;99822.50;;;6.04
19061;BMP280;9663;48.996;8.334;2024-01-16T06:01:23;99824.22;;;6.05
19061;BMP280;9663;48.996;8.334;2024-01-16T06:03:48;99825.88;;;6.03
19061;BMP280;9663;48.996;8.334;2024-01-16T06:06:14;99822.50;;;6.04
19061;BMP280;9663;48.996;8.334;2024-01-16T06:08:40;99829.25;;;6.06
19061;BMP280;9663;48.996;8.334;2024-01-16T06:11:06;99829.28;;;6.09
19061;BMP280;9663;48.996;8.334;2024-01-16T06:13:32;99821.72;;;6.11
19061;BMP280;9663;48.996;8.334;2024-01-16T06:15:58;99825.09;;;6.13
19061;BMP280;9663;48.996;8.334;2024-01-16T06:18:24;99826.78;;;6.14
19061;BMP280;9663;48.996;8.334;2024-01-16T06:20:50;99823.44;;;6.15
19061;BMP280;9663;48.996;8.334;2024-01-16T06:23:15;99823.41;;;6.12
19061;BMP280;9663;48.996;8.334;2024-01-16T06:25:41;99826.75;;;6.11
19061;BMP280;9663;48.996;8.334;2024-01-16T06:28:07;99830.09;;;6.08
19061;BMP280;9663;48.996;8.334;2024-01-16T06:30:33;99823.34;;;6.06
19061;BMP280;9663;48.996;8.334;2024-01-16T06:32:59;99829.25;;;6.06
19061;BMP280;9663;48.996;8.334;2024-01-16T06:35:25;99823.38;;;6.04
19061;BMP280;9663;48.996;8.334;2024-01-16T06:37:51;99839.31;;;6.05
19061;BMP280;9663;48.996;8.334;2024-01-16T06:40:17;99841.84;;;6.05
19061;BMP280;9663;48.996;8.334;2024-01-16T06:42:42;99834.28;;;6.03
19061;BMP280;9663;48.996;8.334;2024-01-16T06:45:08;99835.97;;;6.04
19061;BMP280;9663;48.996;8.334;2024-01-16T06:47:34;99823.34;;;6.01
19061;BMP280;9663;48.996;8.334;2024-01-16T06:50:00;99826.72;;;6.03
19061;BMP280;9663;48.996;8.334;2024-01-16T06:52:26;99826.69;;;6.02
19061;BMP280;9663;48.996;8.334;2024-01-16T06:54:51;99819.19;;;6.06
19061;BMP280;9663;48.996;8.334;2024-01-16T06:57:17;99820.03;;;6.07
19061;BMP280;9663;48.996;8.334;2024-01-16T06:59:43;99809.13;;;6.11
19061;BMP280;9663;48.996;8.334;2024-01-16T07:02:09;99804.97;;;6.11
19061;BMP280;9663;48.996;8.334;2024-01-16T07:04:35;99810.84;;;6.15
19061;BMP280;9663;48.996;8.334;2024-01-16T07:07:01;99807.50;;;6.14
19061;BMP280;9663;48.996;8.334;2024-01-16T07:09:27;99806.63;;;6.14
19061;BMP280;9663;48.996;8.334;2024-01-16T07:11:53;99814.19;;;6.14
19061;BMP280;9663;48.996;8.334;2024-01-16T07:14:20;99804.13;;;6.15
19061;BMP280;9663;48.996;8.334;2024-01-16T07:16:46;99809.16;;;6.15
19061;BMP280;9663;48.996;8.334;2024-01-16T07:19:12;99805.81;;;6.15
19061;BMP280;9663;48.996;8.334;2024-01-16T07:21:38;99806.63;;;6.12
19061;BMP280;9663;48.996;8.334;2024-01-16T07:24:04;99804.09;;;6.12
19061;BMP280;9663;48.996;8.334;2024-01-16T07:26:30;99812.50;;;6.11
19061;BMP280;9663;48.996;8.334;2024-01-16T07:28:56;99818.38;;;6.12
19061;BMP280;9663;48.996;8.334;2024-01-16T07:31:23;99809.13;;;6.12
19061;BMP280;9663;48.996;8.334;2024-01-16T07:33:49;99803.28;;;6.13
19061;BMP280;9663;48.996;8.334;2024-01-16T07:36:15;99804.97;;;6.13
19061;BMP280;9663;48.996;8.334;2024-01-16T07:38:40;99809.13;;;6.12
19061;BMP280;9663;48.996;8.334;2024-01-16T07:41:06;99811.66;;;6.14
19061;BMP280;9663;48.996;8.334;2024-01-16T07:43:32;99819.22;;;6.12
19061;BMP280;9663;48.996;8.334;2024-01-16T07:45:58;99810.84;;;6.13
19061;BMP280;9663;48.996;8.334;2024-01-16T07:48:24;99809.16;;;6.15
19061;BMP280;9663;48.996;8.334;2024-01-16T07:50:50;99804.13;;;6.17
19061;BMP280;9663;48.996;8.334;2024-01-16T07:53:16;99812.56;;;6.20
19061;BMP280;9663;48.996;8.334;2024-01-16T07:55:42;99813.41;;;6.21
19061;BMP280;9663;48.996;8.334;2024-01-16T07:58:11;99812.56;;;6.23
19061;BMP280;9663;48.996;8.334;2024-01-16T08:00:37;99816.78;;;6.23
19061;BMP280;9663;48.996;8.334;2024-01-16T08:03:03;99813.41;;;6.24
19061;BMP280;9663;48.996;8.334;2024-01-16T08:05:29;99817.63;;;6.23
19061;BMP280;9663;48.996;8.334;2024-01-16T08:07:57;99814.28;;;6.24
19061;BMP280;9663;48.996;8.334;2024-01-16T08:10:23;99816.78;;;6.27
19061;BMP280;9663;48.996;8.334;2024-01-16T08:12:48;99819.31;;;6.29
19061;BMP280;9663;48.996;8.334;2024-01-16T08:15:14;99816.00;;;6.33
19061;BMP280;9663;48.996;8.334;2024-01-16T08:17:40;99826.06;;;6.37
19061;BMP280;9663;48.996;8.334;2024-01-16T08:20:08;99826.09;;;6.41
19061;BMP280;9663;48.996;8.334;2024-01-16T08:22:37;99831.19;;;6.46
19061;BMP280;9663;48.996;8.334;2024-01-16T08:25:04;99837.91;;;6.51
19061;BMP280;9663;48.996;8.334;2024-01-16T08:27:31;99829.53;;;6.52
19061;BMP280;9663;48.996;8.334;2024-01-16T08:29:57;99827.03;;;6.55
19061;BMP280;9663;48.996;8.334;2024-01-16T08:32:23;99840.50;;;6.62
19061;BMP280;9663;48.996;8.334;2024-01-16T08:34:48;99826.25;;;6.65
19061;BMP280;9663;48.996;8.334;2024-01-16T08:37:14;99833.81;;;6.70
19061;BMP280;9663;48.996;8.334;2024-01-16T08:39:40;99829.63;;;6.76
19061;BMP280;9663;48.996;8.334;2024-01-16T08:42:06;99828.84;;;6.81
19061;BMP280;9663;48.996;8.334;2024-01-16T08:44:31;99825.47;;;6.84
19061;BMP280;9663;48.996;8.334;2024-01-16T08:46:57;99840.63;;;6.90
19061;BMP280;9663;48.996;8.334;2024-01-16T08:49:25;99838.13;;;6.96
19061;BMP280;9663;48.996;8.334;2024-01-16T08:51:50;99840.66;;;7.00
19061;BMP280;9663;48.996;8.334;2024-01-16T08:54:16;99846.56;;;7.07
19061;BMP280;9663;48.996;8.334;2024-01-16T08:56:42;99848.28;;;7.15
19061;BMP280;9663;48.996;8.334;2024-01-16T08:59:07;99858.41;;;7.22
19061;BMP280;9663;48.996;8.334;2024-01-16T09:01:35;99851.69;;;7.27
19061;BMP280;9663;48.996;8.334;2024-01-16T09:04:01;99847.47;;;7.31
19061;BMP280;9663;48.996;8.334;2024-01-16T09:06:27;99856.75;;;7.38
19061;BMP280;9663;48.996;8.334;2024-01-16T09:08:52;99846.69;;;7.45
19061;BMP280;9663;48.996;8.334;2024-01-16T09:11:18;99848.38;;;7.54
19061;BMP280;9663;48.996;8.334;2024-01-16T09:13:44;99851.75;;;7.59
19061;BMP280;9663;48.996;8.334;2024-01-16T09:16:10;99845.84;;;7.61
19061;BMP280;9663;48.996;8.334;2024-01-16T09:18:35;99858.47;;;7.68
19061;BMP280;9663;48.996;8.334;2024-01-16T09:21:01;99852.59;;;7.75
19061;BMP280;9663;48.996;8.334;2024-01-16T09:23:28;99851.75;;;7.84
19061;BMP280;9663;48.996;8.334;2024-01-16T09:25:53;99844.19;;;7.93
19061;BMP280;9663;48.996;8.334;2024-01-16T09:28:19;99852.59;;;8.02
19061;BMP280;9663;48.996;8.334;2024-01-16T09:30:45;99841.66;;;8.06
19061;BMP280;9663;48.996;8.334;2024-01-16T09:33:10;99838.31;;;8.14
19061;BMP280;9663;48.996;8.334;2024-01-16T09:35:37;99849.22;;;8.25
19061;BMP280;9663;48.996;8.334;2024-01-16T09:38:04;99850.06;;;8.38
19061;BMP280;9663;48.996;8.334;2024-01-16T09:40:33;99856.78;;;8.49
19061;BMP280;9663;48.996;8.334;2024-01-16T09:43:02;99866.00;;;8.62
19061;BMP280;9663;48.996;8.334;2024-01-16T09:45:29;99856.72;;;8.65
19061;BMP280;9663;48.996;8.334;2024-01-16T09:47:56;99855.03;;;8.70
19061;BMP280;9663;48.996;8.334;2024-01-16T09:50:23;99861.75;;;8.74
19061;BMP280;9663;48.996;8.334;2024-01-16T09:52:48;99865.13;;;8.76
19061;BMP280;9663;48.996;8.334;2024-01-16T09:55:15;99865.09;;;8.79
19061;BMP280;9663;48.996;8.334;2024-01-16T09:57:45;99858.34;;;8.84
19061;BMP280;9663;48.996;8.334;2024-01-16T10:00:12;99855.81;;;8.90
19061;BMP280;9663;48.996;8.334;2024-01-16T10:02:42;99847.34;;;8.97
19061;BMP280;9663;48.996;8.334;2024-01-16T10:05:11;99848.16;;;9.05
19061;BMP280;9663;48.996;8.334;2024-01-16T10:07:41;99842.19;;;9.13
19061;BMP280;9663;48.996;8.334;2024-01-16T10:10:11;99837.94;;;9.18
19061;BMP280;9663;48.996;8.334;2024-01-16T10:12:40;99827.00;;;9.19
19061;BMP280;9663;48.996;8.334;2024-01-16T10:15:07;99818.53;;;9.20
19061;BMP280;9663;48.996;8.334;2024-01-16T10:17:39;99810.94;;;9.26
19061;BMP280;9663;48.996;8.334;2024-01-16T10:20:07;99807.56;;;9.29
19061;BMP280;9663;48.996;8.334;2024-01-16T10:22:33;99809.19;;;9.33
19061;BMP280;9663;48.996;8.334;2024-01-16T10:25:10;99807.44;;;9.43
19061;BMP280;9663;48.996;8.334;2024-01-16T10:27:39;99803.94;;;9.59
19061;BMP280;9663;48.996;8.334;2024-01-16T10:30:06;99806.31;;;9.80
19061;BMP280;9663;48.996;8.334;2024-01-16T10:32:38;99806.13;;;10.02
19061;BMP280;9663;48.996;8.334;2024-01-16T10:35:12;99799.22;;;10.21
19061;BMP280;9663;48.996;8.334;2024-01-16T10:37:49;99793.09;;;10.38
19061;BMP280;9663;48.996;8.334;2024-01-16T10:40:18;99779.44;;;10.51
19061;BMP280;9663;48.996;8.334;2024-01-16T10:42:45;99779.31;;;10.61
19061;BMP280;9663;48.996;8.334;2024-01-16T10:45:18;99782.59;;;10.69
19061;BMP280;9663;48.996;8.334;2024-01-16T10:47:46;99774.94;;;10.75
19061;BMP280;9663;48.996;8.334;2024-01-16T10:50:12;99783.31;;;10.81
19061;BMP280;9663;48.996;8.334;2024-01-16T10:52:52;99772.22;;;10.88
19061;BMP280;9663;48.996;8.334;2024-01-16T10:55:22;99773.78;;;10.98
19061;BMP280;9663;48.996;8.334;2024-01-16T10:57:49;99779.56;;;11.07
19061;BMP280;9663;48.996;8.334;2024-01-16T11:00:20;99772.25;;;11.47
19061;BMP280;9663;48.996;8.334;2024-01-16T11:03:09;99776.69;;;11.30
19061;BMP280;9663;48.996;8.334;2024-01-16T11:05:37;99763.84;;;11.42
19061;BMP280;9663;48.996;8.334;2024-01-16T11:08:05;99755.28;;;11.49
19061;BMP280;9663;48.996;8.334;2024-01-16T11:10:35;99759.44;;;11.52
19061;BMP280;9663;48.996;8.334;2024-01-16T11:13:05;99753.53;;;11.53
19061;BMP280;9663;48.996;8.334;2024-01-16T11:15:32;99755.19;;;11.54
19061;BMP280;9663;48.996;8.334;2024-01-16T11:17:59;99740.00;;;11.52
19061;BMP280;9663;48.996;8.334;2024-01-16T11:20:28;99740.81;;;11.53
19061;BMP280;9663;48.996;8.334;2024-01-16T11:22:56;99738.13;;;11.62
19061;BMP280;9663;48.996;8.334;2024-01-16T11:25:32;99731.03;;;11.81
19061;BMP280;9663;48.996;8.334;2024-01-16T11:28:14;99724.69;;;12.04
19061;BMP280;9663;48.996;8.334;2024-01-16T11:30:42;99728.19;;;12.42
19061;BMP280;9663;48.996;8.334;2024-01-16T11:35:56;99704.69;;;14.69
19061;BMP280;9663;48.996;8.334;2024-01-16T11:38:24;99695.47;;;16.21
19061;BMP280;9663;48.996;8.334;2024-01-16T11:40:53;99679.16;;;17.53
19061;BMP280;9663;48.996;8.334;2024-01-16T11:43:36;99662.19;;;18.83
19061;BMP280;9663;48.996;8.334;2024-01-16T11:46:08;99662.81;;;19.92
19061;BMP280;9663;48.996;8.334;2024-01-16T11:48:35;99655.59;;;20.78
19061;BMP280;9663;48.996;8.334;2024-01-16T11:51:24;99649.03;;;21.48
19061;BMP280;9663;48.996;8.334;2024-01-16T11:53:51;99638.81;;;22.03
19061;BMP280;9663;48.996;8.334;2024-01-16T11:56:32;99626.44;;;22.50
19061;BMP280;9663;48.996;8.334;2024-01-16T12:02:21;99621.38;;;23.53
19061;BMP280;9663;48.996;8.334;2024-01-16T12:04:53;99615.66;;;23.87
19061;BMP280;9663;48.996;8.334;2024-01-16T12:07:24;99612.53;;;24.06
19061;BMP280;9663;48.996;8.334;2024-01-16T12:09:50;99604.56;;;24.09
19061;BMP280;9663;48.996;8.334;2024-01-16T12:12:16;99598.94;;;24.28
19061;BMP280;9663;48.996;8.334;2024-01-16T12:14:51;99601.91;;;24.47
19061;BMP280;9663;48.996;8.334;2024-01-16T12:17:22;99599.13;;;24.73
19061;BMP280;9663;48.996;8.334;2024-01-16T12:19:47;99588.03;;;24.94
19061;BMP280;9663;48.996;8.334;2024-01-16T12:22:16;99593.72;;;25.11
19061;BMP280;9663;48.996;8.334;2024-01-16T12:24:47;99594.59;;;25.23
19061;BMP280;9663;48.996;8.334;2024-01-16T12:27:13;99588.97;;;25.39
19061;BMP280;9663;48.996;8.334;2024-01-16T12:29:39;99592.00;;;25.68
19061;BMP280;9663;48.996;8.334;2024-01-16T12:32:11;99588.25;;;25.93
19061;BMP280;9663;48.996;8.334;2024-01-16T12:34:47;99592.50;;;25.94
19061;BMP280;9663;48.996;8.334;2024-01-16T12:37:13;99583.63;;;25.64
19061;BMP280;9663;48.996;8.334;2024-01-16T12:39:42;99584.22;;;25.33
19061;BMP280;9663;48.996;8.334;2024-01-16T12:42:10;99587.06;;;24.84
19061;BMP280;9663;48.996;8.334;2024-01-16T12:44:37;99585.03;;;24.29
19061;BMP280;9663;48.996;8.334;2024-01-16T12:47:03;99587.69;;;23.79
19061;BMP280;9663;48.996;8.334;2024-01-16T12:49:29;99582.22;;;23.45
19061;BMP280;9663;48.996;8.334;2024-01-16T12:52:19;99586.03;;;22.49
19061;BMP280;9663;48.996;8.334;2024-01-16T12:54:47;99578.47;;;21.20
19061;BMP280;9663;48.996;8.334;2024-01-16T12:57:19;99585.72;;;19.74
19061;BMP280;9663;48.996;8.334;2024-01-16T12:59:47;99583.25;;;18.34
19061;BMP280;9663;48.996;8.334;2024-01-16T13:02:24;99594.31;;;16.99
19061;BMP280;9663;48.996;8.334;2024-01-16T13:05:00;99602.50;;;15.97
19061;BMP280;9663;48.996;8.334;2024-01-16T13:07:28;99599.13;;;15.24
19061;BMP280;9663;48.996;8.334;2024-01-16T13:10:13;99592.03;;;14.53
19061;BMP280;9663;48.996;8.334;2024-01-16T13:12:42;99595.28;;;14.01
19061;BMP280;9663;48.996;8.334;2024-01-16T13:15:07;99588.09;;;13.55
19061;BMP280;9663;48.996;8.334;2024-01-16T13:17:37;99584.06;;;13.13
19061;BMP280;9663;48.996;8.334;2024-01-16T13:20:03;99595.16;;;12.76
19061;BMP280;9663;48.996;8.334;2024-01-16T13:22:33;99599.34;;;12.41
19061;BMP280;9663;48.996;8.334;2024-01-16T13:24:59;99587.25;;;12.13
19061;BMP280;9663;48.996;8.334;2024-01-16T13:27:24;99581.75;;;11.93
19061;BMP280;9663;48.996;8.334;2024-01-16T13:29:52;99586.34;;;11.75
19061;BMP280;9663;48.996;8.334;2024-01-16T13:32:17;99588.28;;;11.61
19061;BMP280;9663;48.996;8.334;2024-01-16T13:34:43;99583.41;;;11.51
19061;BMP280;9663;48.996;8.334;2024-01-16T13:37:20;99570.00;;;11.41
19061;BMP280;9663;48.996;8.334;2024-01-16T13:39:47;99560.06;;;11.31
19061;BMP280;9663;48.996;8.334;2024-01-16T13:42:13;99549.31;;;11.17
19061;BMP280;9663;48.996;8.334;2024-01-16T13:44:38;99548.66;;;11.07
19061;BMP280;9663;48.996;8.334;2024-01-16T13:47:05;99548.72;;;11.03
19061;BMP280;9663;48.996;8.334;2024-01-16T13:49:30;99544.56;;;10.99
19061;BMP280;9663;48.996;8.334;2024-01-16T13:51:56;99543.84;;;10.93
19061;BMP280;9663;48.996;8.334;2024-01-16T13:54:22;99541.38;;;10.88
19061;BMP280;9663;48.996;8.334;2024-01-16T13:56:47;99548.31;;;11.27
19061;BMP280;9663;48.996;8.334;2024-01-16T13:59:13;99548.81;;;10.96
19061;BMP280;9663;48.996;8.334;2024-01-16T14:01:39;99543.84;;;10.93
19061;BMP280;9663;48.996;8.334;2024-01-16T14:04:05;99542.13;;;10.93
19061;BMP280;9663;48.996;8.334;2024-01-16T14:06:31;99550.59;;;10.92
19061;BMP280;9663;48.996;8.334;2024-01-16T14:08:56;99543.06;;;10.89
19061;BMP280;9663;48.996;8.334;2024-01-16T14:11:25;99546.47;;;10.85
19061;BMP280;9663;48.996;8.334;2024-01-16T14:13:51;99560.88;;;10.83
19061;BMP280;9663;48.996;8.334;2024-01-16T14:16:18;99557.59;;;10.78
19061;BMP280;9663;48.996;8.334;2024-01-16T14:18:44;99568.69;;;10.71
19061;BMP280;9663;48.996;8.334;2024-01-16T14:21:10;99575.53;;;10.66
19061;BMP280;9663;48.996;8.334;2024-01-16T14:23:35;99569.69;;;10.63
19061;BMP280;9663;48.996;8.334;2024-01-16T14:26:03;99565.41;;;10.66
19061;BMP280;9663;48.996;8.334;2024-01-16T14:28:28;99556.88;;;10.70
19061;BMP280;9663;48.996;8.334;2024-01-16T14:30:54;99577.88;;;10.78
19061;BMP280;9663;48.996;8.334;2024-01-16T14:33:20;99564.28;;;10.82
19061;BMP280;9663;48.996;8.334;2024-01-16T14:35:45;99560.81;;;10.89
19061;BMP280;9663;48.996;8.334;2024-01-16T14:38:11;99546.28;;;10.96